sensor_id;sensor_type;location;lat;lon;timestamp;pressure;altitude;pressure_sealevel;temperature;humidity
71476;BME280;59286;59.274;17.974;2024-01-30T00:01:47;102198.41;;;2.98;100.00
71476;BME280;59286;59.274;17.974;2024-01-30T00:04:12;102193.44;;;2.97;100.00
71476;BME280;59286;59.274;17.974;2024-01-30T00:06:37;102193.66;;;2.95;100.00
71476;BME280;59286;59.274;17.974;2024-01-30T00:09:02;102198.63;;;2.97;100.00
71476;BME280;59286;59.274;17.974;2024-01-30T00:11:28;102195.47;;;2.88;100.00
71476;BME280;59286;59.274;17.974;2024-01-30T00:13:54;102203.03;;;2.90;100.00
71476;BME280;59286;59.274;17.974;2024-01-30T00:16:22;102199.47;;;2.78;100.00
71476;BME280;59286;59.274;17.974;2024-01-30T00:18:52;102198.69;;;2.71;100.00
71476;BME280;59286;59.274;17.974;2024-01-30T00:21:19;102210.44;;;2.73;100.00
71476;BME280;59286;59.274;17.974;2024-01-30T00:23:44;102197.72;;;2.65;100.00
71476;BME280;59286;59.274;17.974;2024-01-30T00:26:09;102204.28;;;2.68;100.00
71476;BME280;59286;59.274;17.974;2024-01-30T00:28:36;102192.75;;;2.64;100.00
71476;BME280;59286;59.274;17.974;2024-01-30T00:31:03;102191.59;;;2.53;100.00
71476;BME280;59286;59.274;17.974;2024-01-30T00:33:28;102203.31;;;2.56;100.00
71476;BME280;59286;59.274;17.974;2024-01-30T00:35:53;102202.13;;;2.45;100.00
71476;BME280;59286;59.274;17.974;2024-01-30T00:38:19;102207.72;;;2.36;100.00
71476;BME280;59286;59.274;17.974;2024-01-30T00:40:44;102207.13;;;2.40;100.00
71476;BME280;59286;59.274;17.974;2024-01-30T00:43:09;102211.69;;;2.32;100.00
71476;BME280;59286;59.274;17.974;2024-01-30T00:45:34;102199.97;;;2.29;100.00
71476;BME280;59286;59.274;17.974;2024-01-30T00:48:00;102198.53;;;2.33;100.00
71476;BME280;59286;59.274;17.974;2024-01-30T00:50:25;102204.72;;;2.32;100.00
71476;BME280;59286;59.274;17.974;2024-01-30T00:52:51;102194.00;;;2.29;100.00
71476;BME280;59286;59.274;17.974;2024-01-30T00:55:16;102199.97;;;2.29;100.00
71476;BME280;59286;59.274;17.974;2024-01-30T00:57:41;102203.53;;;2.35;100.00
71476;BME280;59286;59.274;17.974;2024-01-30T01:00:07;102206.72;;;2.37;100.00
71476;BME280;59286;59.274;17.974;2024-01-30T01:02:37;102203.34;;;2.36;100.00
71476;BME280;59286;59.274;17.974;2024-01-30T01:05:03;102213.50;;;2.31;100.00
71476;BME280;59286;59.274;17.974;2024-01-30T01:07:28;102213.09;;;2.34;100.00
71476;BME280;59286;59.274;17.974;2024-01-30T01:09:53;102217.88;;;2.31;100.00
71476;BME280;59286;59.274;17.974;2024-01-30T01:12:19;102212.69;;;2.24;100.00
71476;BME280;59286;59.274;17.974;2024-01-30T01:14:44;102214.69;;;2.29;100.00
71476;BME280;59286;59.274;17.974;2024-01-30T01:17:10;102217.06;;;2.30;100.00
71476;BME280;59286;59.274;17.974;2024-01-30T01:19:35;102215.88;;;2.33;100.00
71476;BME280;59286;59.274;17.974;2024-01-30T01:22:00;102217.88;;;2.31;100.00
71476;BME280;59286;59.274;17.974;2024-01-30T01:24:25;102205.53;;;2.20;100.00
71476;BME280;59286;59.274;17.974;2024-01-30T01:26:51;102205.91;;;2.04;100.00
71476;BME280;59286;59.274;17.974;2024-01-30T01:29:16;102208.09;;;1.93;100.00
71476;BME280;59286;59.274;17.974;2024-01-30T01:31:42;102198.72;;;1.79;100.00
71476;BME280;59286;59.274;17.974;2024-01-30T01:34:11;102209.88;;;1.80;100.00
71476;BME280;59286;59.274;17.974;2024-01-30T01:36:36;102204.31;;;1.76;100.00
71476;BME280;59286;59.274;17.974;2024-01-30T01:39:02;102207.88;;;1.75;100.00
71476;BME280;59286;59.274;17.974;2024-01-30T01:41:34;102195.53;;;1.77;100.00
71476;BME280;59286;59.274;17.974;2024-01-30T01:44:00;102198.72;;;1.79;100.00
71476;BME280;59286;59.274;17.974;2024-01-30T01:46:27;102209.06;;;1.73;100.00
71476;BME280;59286;59.274;17.974;2024-01-30T01:48:53;102202.50;;;1.70;100.00
71476;BME280;59286;59.274;17.974;2024-01-30T01:51:19;102204.31;;;1.76;100.00
71476;BME280;59286;59.274;17.974;2024-01-30T01:53:44;102204.72;;;1.73;100.00
71476;BME280;59286;59.274;17.974;2024-01-30T01:56:10;102192.75;;;1.72;100.00
71476;BME280;59286;59.274;17.974;2024-01-30T01:58:36;102195.16;;;1.67;100.00
71476;BME280;59286;59.274;17.974;2024-01-30T02:01:03;102190.16;;;1.59;100.00
71476;BME280;59286;59.274;17.974;2024-01-30T02:03:30;102197.72;;;1.67;100.00
71476;BME280;59286;59.274;17.974;2024-01-30T02:05:56;102196.72;;;1.68;100.00
71476;BME280;59286;59.274;17.974;2024-01-30T02:08:22;102195.34;;;1.72;100.00
71476;BME280;59286;59.274;17.974;2024-01-30T02:10:48;102190.78;;;1.74;100.00
71476;BME280;59286;59.274;17.974;2024-01-30T02:13:13;102185.19;;;1.77;100.00
71476;BME280;59286;59.274;17.974;2024-01-30T02:15:39;102179.63;;;1.74;100.00
71476;BME280;59286;59.274;17.974;2024-01-30T02:18:04;102179.84;;;1.72;100.00
71476;BME280;59286;59.274;17.974;2024-01-30T02:20:30;102191.75;;;1.60;100.00
71476;BME280;59286;59.274;17.974;2024-01-30T02:22:58;102202.25;;;1.52;100.00
71476;BME280;59286;59.274;17.974;2024-01-30T02:25:31;102191.53;;;1.55;100.00
71476;BME280;59286;59.274;17.974;2024-01-30T02:27:56;102186.34;;;1.55;100.00
71476;BME280;59286;59.274;17.974;2024-01-30T02:30:22;102194.31;;;1.54;100.00
71476;BME280;59286;59.274;17.974;2024-01-30T02:32:47;102189.56;;;1.51;100.00
71476;BME280;59286;59.274;17.974;2024-01-30T02:35:12;102188.34;;;1.53;100.00
71476;BME280;59286;59.274;17.974;2024-01-30T02:37:38;102183.81;;;1.62;100.00
71476;BME280;59286;59.274;17.974;2024-01-30T02:40:04;102192.56;;;1.67;100.00
71476;BME280;59286;59.274;17.974;2024-01-30T02:42:29;102185.22;;;1.71;100.00
71476;BME280;59286;59.274;17.974;2024-01-30T02:44:54;102179.25;;;1.64;100.00
71476;BME280;59286;59.274;17.974;2024-01-30T02:47:20;102183.19;;;1.53;100.00
71476;BME280;59286;59.274;17.974;2024-01-30T02:49:45;102179.19;;;1.44;100.00
71476;BME280;59286;59.274;17.974;2024-01-30T02:52:10;102187.94;;;1.43;100.00
71476;BME280;59286;59.274;17.974;2024-01-30T02:54:36;102187.53;;;1.46;100.00
71476;BME280;59286;59.274;17.974;2024-01-30T02:57:01;102194.13;;;1.49;100.00
71476;BME280;59286;59.274;17.974;2024-01-30T02:59:26;102193.50;;;1.47;100.00
71476;BME280;59286;59.274;17.974;2024-01-30T03:01:52;102192.28;;;1.43;100.00
71476;BME280;59286;59.274;17.974;2024-01-30T03:04:17;102198.63;;;1.40;100.00
71476;BME280;59286;59.274;17.974;2024-01-30T03:06:46;102199.03;;;1.44;100.00
71476;BME280;59286;59.274;17.974;2024-01-30T03:09:12;102191.50;;;1.42;100.00
71476;BME280;59286;59.274;17.974;2024-01-30T03:11:37;102192.09;;;1.44;100.00
71476;BME280;59286;59.274;17.974;2024-01-30T03:14:02;102183.19;;;1.47;100.00
71476;BME280;59286;59.274;17.974;2024-01-30T03:16:29;102178.97;;;1.39;100.00
71476;BME280;59286;59.274;17.974;2024-01-30T03:18:54;102177.38;;;1.38;100.00
71476;BME280;59286;59.274;17.974;2024-01-30T03:21:20;102185.53;;;1.42;100.00
71476;BME280;59286;59.274;17.974;2024-01-30T03:23:45;102183.94;;;1.41;100.00
71476;BME280;59286;59.274;17.974;2024-01-30T03:26:10;102194.47;;;1.46;100.00
71476;BME280;59286;59.274;17.974;2024-01-30T03:28:37;102192.09;;;1.44;100.00
71476;BME280;59286;59.274;17.974;2024-01-30T03:31:03;102187.94;;;1.50;100.00
71476;BME280;59286;59.274;17.974;2024-01-30T03:33:28;102191.13;;;1.45;100.00
71476;BME280;59286;59.274;17.974;2024-01-30T03:35:53;102197.06;;;1.46;100.00
71476;BME280;59286;59.274;17.974;2024-01-30T03:38:18;102206.63;;;1.45;100.00
71476;BME280;59286;59.274;17.974;2024-01-30T03:40:44;102199.84;;;1.44;100.00
71476;BME280;59286;59.274;17.974;2024-01-30T03:43:09;102199.03;;;1.37;100.00
71476;BME280;59286;59.274;17.974;2024-01-30T03:45:34;102198.63;;;1.40;100.00
71476;BME280;59286;59.274;17.974;2024-01-30T03:48:00;102203.03;;;1.40;100.00
71476;BME280;59286;59.274;17.974;2024-01-30T03:50:25;102202.44;;;1.38;100.00
71476;BME280;59286;59.274;17.974;2024-01-30T03:52:50;102199.78;;;1.25;100.00
71476;BME280;59286;59.274;17.974;2024-01-30T03:55:16;102201.56;;;1.24;100.00
71476;BME280;59286;59.274;17.974;2024-01-30T03:57:41;102199.38;;;1.21;100.00
71476;BME280;59286;59.274;17.974;2024-01-30T04:00:07;102208.31;;;1.25;100.00
71476;BME280;59286;59.274;17.974;2024-01-30T04:02:33;102197.59;;;1.22;100.00
71476;BME280;59286;59.274;17.974;2024-01-30T04:04:58;102197.81;;;1.27;100.00
71476;BME280;59286;59.274;17.974;2024-01-30T04:07:23;102208.97;;;1.34;100.00
71476;BME280;59286;59.274;17.974;2024-01-30T04:09:49;102215.72;;;1.35;100.00
71476;BME280;59286;59.274;17.974;2024-01-30T04:12:14;102214.50;;;1.31;100.00
71476;BME280;59286;59.274;17.974;2024-01-30T04:14:39;102206.38;;;1.34;100.00
71476;BME280;59286;59.274;17.974;2024-01-30T04:17:04;102206.53;;;1.26;100.00
71476;BME280;59286;59.274;17.974;2024-01-30T04:19:30;102207.53;;;1.25;100.00
71476;BME280;59286;59.274;17.974;2024-01-30T04:21:55;102206.53;;;1.26;100.00
71476;BME280;59286;59.274;17.974;2024-01-30T04:24:20;102212.72;;;1.31;100.00
71476;BME280;59286;59.274;17.974;2024-01-30T04:26:46;102220.88;;;1.28;100.00
71476;BME280;59286;59.274;17.974;2024-01-30T04:29:11;102214.88;;;1.21;100.00
71476;BME280;59286;59.274;17.974;2024-01-30T04:31:36;102214.69;;;1.23;100.00
71476;BME280;59286;59.274;17.974;2024-01-30T04:34:02;102216.06;;;1.25;100.00
71476;BME280;59286;59.274;17.974;2024-01-30T04:36:27;102218.88;;;1.30;100.00
71476;BME280;59286;59.274;17.974;2024-01-30T04:38:52;102211.72;;;1.26;100.00
71476;BME280;59286;59.274;17.974;2024-01-30T04:41:18;102202.13;;;1.13;100.00
71476;BME280;59286;59.274;17.974;2024-01-30T04:43:43;102210.09;;;1.18;100.00
71476;BME280;59286;59.274;17.974;2024-01-30T04:46:08;102205.31;;;1.22;100.00
71476;BME280;59286;59.274;17.974;2024-01-30T04:48:34;102199.97;;;1.23;100.00
71476;BME280;59286;59.274;17.974;2024-01-30T04:50:59;102204.56;;;1.21;100.00
71476;BME280;59286;59.274;17.974;2024-01-30T04:53:27;102207.16;;;1.28;100.00
71476;BME280;59286;59.274;17.974;2024-01-30T04:55:53;102197.22;;;1.25;100.00
71476;BME280;59286;59.274;17.974;2024-01-30T04:58:18;102191.03;;;1.26;100.00
71476;BME280;59286;59.274;17.974;2024-01-30T05:00:43;102207.19;;;1.34;100.00
71476;BME280;59286;59.274;17.974;2024-01-30T05:03:09;102207.56;;;1.31;100.00
71476;BME280;59286;59.274;17.974;2024-01-30T05:05:34;102209.94;;;1.26;100.00
71476;BME280;59286;59.274;17.974;2024-01-30T05:07:59;102198.19;;;1.17;100.00
71476;BME280;59286;59.274;17.974;2024-01-30T05:10:25;102196.00;;;1.21;100.00
71476;BME280;59286;59.274;17.974;2024-01-30T05:12:50;102200.97;;;1.16;100.00
71476;BME280;59286;59.274;17.974;2024-01-30T05:15:15;102195.00;;;1.15;100.00
71476;BME280;59286;59.274;17.974;2024-01-30T05:17:40;102199.75;;;1.18;100.00
71476;BME280;59286;59.274;17.974;2024-01-30T05:20:06;102198.00;;;1.25;100.00
71476;BME280;59286;59.274;17.974;2024-01-30T05:22:32;102198.22;;;1.30;100.00
71476;BME280;59286;59.274;17.974;2024-01-30T05:24:57;102208.38;;;1.38;100.00
71476;BME280;59286;59.274;17.974;2024-01-30T05:27:23;102207.94;;;1.28;100.00
71476;BME280;59286;59.274;17.974;2024-01-30T05:29:48;102214.50;;;1.31;100.00
71476;BME280;59286;59.274;17.974;2024-01-30T05:32:14;102204.97;;;1.25;100.00
71476;BME280;59286;59.274;17.974;2024-01-30T05:34:40;102214.50;;;1.31;100.00
71476;BME280;59286;59.274;17.974;2024-01-30T05:37:05;102215.31;;;1.31;100.00
71476;BME280;59286;59.274;17.974;2024-01-30T05:39:31;102214.91;;;1.28;100.00
71476;BME280;59286;59.274;17.974;2024-01-30T05:41:58;102212.88;;;1.23;100.00
71476;BME280;59286;59.274;17.974;2024-01-30T05:44:23;102214.69;;;1.29;100.00
71476;BME280;59286;59.274;17.974;2024-01-30T05:46:48;102205.38;;;1.28;100.00
71476;BME280;59286;59.274;17.974;2024-01-30T05:49:14;102204.56;;;1.28;100.00
71476;BME280;59286;59.274;17.974;2024-01-30T05:51:39;102202.59;;;1.30;100.00
71476;BME280;59286;59.274;17.974;2024-01-30T05:54:04;102220.28;;;1.33;100.00
71476;BME280;59286;59.274;17.974;2024-01-30T05:56:29;102212.91;;;1.30;100.00
71476;BME280;59286;59.274;17.974;2024-01-30T05:58:55;102211.75;;;1.32;100.00
71476;BME280;59286;59.274;17.974;2024-01-30T06:01:20;102212.72;;;1.31;100.00
71476;BME280;59286;59.274;17.974;2024-01-30T06:03:45;102208.97;;;1.34;100.00
71476;BME280;59286;59.274;17.974;2024-01-30T06:06:11;102207.00;;;1.42;100.00
71476;BME280;59286;59.274;17.974;2024-01-30T06:08:36;102201.81;;;1.42;100.00
71476;BME280;59286;59.274;17.974;2024-01-30T06:11:01;102193.06;;;1.37;100.00
71476;BME280;59286;59.274;17.974;2024-01-30T06:13:27;102193.06;;;1.37;100.00
71476;BME280;59286;59.274;17.974;2024-01-30T06:15:52;102190.88;;;1.40;100.00
71476;BME280;59286;59.274;17.974;2024-01-30T06:18:18;102188.09;;;1.35;100.00
71476;BME280;59286;59.274;17.974;2024-01-30T06:20:43;102189.88;;;1.35;100.00
71476;BME280;59286;59.274;17.974;2024-01-30T06:23:08;102198.22;;;1.30;100.00
71476;BME280;59286;59.274;17.974;2024-01-30T06:25:34;102195.03;;;1.28;100.00
71476;BME280;59286;59.274;17.974;2024-01-30T06:27:59;102190.28;;;1.32;100.00
71476;BME280;59286;59.274;17.974;2024-01-30T06:30:24;102198.44;;;1.35;100.00
71476;BME280;59286;59.274;17.974;2024-01-30T06:32:50;102194.69;;;1.38;100.00
71476;BME280;59286;59.274;17.974;2024-01-30T06:35:15;102191.50;;;1.36;100.00
71476;BME280;59286;59.274;17.974;2024-01-30T06:37:42;102191.84;;;1.33;100.00
71476;BME280;59286;59.274;17.974;2024-01-30T06:40:08;102181.13;;;1.29;100.00
71476;BME280;59286;59.274;17.974;2024-01-30T06:42:33;102187.09;;;1.30;100.00
71476;BME280;59286;59.274;17.974;2024-01-30T06:44:59;102194.28;;;1.34;100.00
71476;BME280;59286;59.274;17.974;2024-01-30T06:47:24;102201.97;;;1.28;100.00
71476;BME280;59286;59.274;17.974;2024-01-30T06:49:49;102212.72;;;1.31;100.00
71476;BME280;59286;59.274;17.974;2024-01-30T06:52:14;102193.81;;;1.24;100.00
71476;BME280;59286;59.274;17.974;2024-01-30T06:54:40;102206.34;;;1.27;100.00
71476;BME280;59286;59.274;17.974;2024-01-30T06:57:05;102200.00;;;1.30;100.00
71476;BME280;59286;59.274;17.974;2024-01-30T06:59:34;102203.59;;;1.35;100.00
71476;BME280;59286;59.274;17.974;2024-01-30T07:01:59;102198.22;;;1.30;100.00
71476;BME280;59286;59.274;17.974;2024-01-30T07:04:25;102194.44;;;1.26;100.00
71476;BME280;59286;59.274;17.974;2024-01-30T07:06:50;102199.59;;;1.26;100.00
71476;BME280;59286;59.274;17.974;2024-01-30T07:09:15;102191.84;;;1.26;100.00
71476;BME280;59286;59.274;17.974;2024-01-30T07:11:40;102189.47;;;1.25;100.00
71476;BME280;59286;59.274;17.974;2024-01-30T07:14:08;102193.44;;;1.27;100.00
71476;BME280;59286;59.274;17.974;2024-01-30T07:16:33;102187.50;;;1.27;100.00
71476;BME280;59286;59.274;17.974;2024-01-30T07:18:59;102186.28;;;1.23;100.00
71476;BME280;59286;59.274;17.974;2024-01-30T07:21:24;102190.63;;;1.22;100.00
71476;BME280;59286;59.274;17.974;2024-01-30T07:23:54;102181.47;;;1.20;100.00
71476;BME280;59286;59.274;17.974;2024-01-30T07:26:20;102177.28;;;1.12;100.00
71476;BME280;59286;59.274;17.974;2024-01-30T07:28:45;102174.91;;;1.11;100.00
71476;BME280;59286;59.274;17.974;2024-01-30T07:31:10;102178.06;;;1.06;100.00
71476;BME280;59286;59.274;17.974;2024-01-30T07:33:36;102170.69;;;1.03;100.00
71476;BME280;59286;59.274;17.974;2024-01-30T07:36:01;102181.47;;;1.13;100.00
71476;BME280;59286;59.274;17.974;2024-01-30T07:38:26;102188.47;;;1.19;100.00
71476;BME280;59286;59.274;17.974;2024-01-30T07:40:52;102187.06;;;1.23;100.00
71476;BME280;59286;59.274;17.974;2024-01-30T07:43:17;102202.59;;;1.30;100.00
71476;BME280;59286;59.274;17.974;2024-01-30T07:45:42;102193.88;;;1.37;100.00
71476;BME280;59286;59.274;17.974;2024-01-30T07:48:08;102191.50;;;1.42;100.00
71476;BME280;59286;59.274;17.974;2024-01-30T07:50:33;102188.75;;;1.50;100.00
71476;BME280;59286;59.274;17.974;2024-01-30T07:52:59;102182.59;;;1.58;100.00
71476;BME280;59286;59.274;17.974;2024-01-30T07:55:25;102186.75;;;1.59;100.00
71476;BME280;59286;59.274;17.974;2024-01-30T07:57:52;102184.97;;;1.59;100.00
71476;BME280;59286;59.274;17.974;2024-01-30T08:00:21;102174.03;;;1.57;100.00
71476;BME280;59286;59.274;17.974;2024-01-30T08:02:47;102175.81;;;1.57;100.00
71476;BME280;59286;59.274;17.974;2024-01-30T08:05:13;102178.00;;;1.53;100.00
71476;BME280;59286;59.274;17.974;2024-01-30T08:07:43;102169.09;;;1.56;100.00
71476;BME280;59286;59.274;17.974;2024-01-30T08:10:08;102163.72;;;1.57;100.00
71476;BME280;59286;59.274;17.974;2024-01-30T08:12:34;102170.88;;;1.62;100.00
71476;BME280;59286;59.274;17.974;2024-01-30T08:14:59;102168.50;;;1.60;100.00
71476;BME280;59286;59.274;17.974;2024-01-30T08:17:24;102158.94;;;1.61;100.00
71476;BME280;59286;59.274;17.974;2024-01-30T08:19:50;102150.41;;;1.60;100.00
71476;BME280;59286;59.274;17.974;2024-01-30T08:22:15;102148.81;;;1.59;100.00
71476;BME280;59286;59.274;17.974;2024-01-30T08:24:41;102134.09;;;1.47;100.00
71476;BME280;59286;59.274;17.974;2024-01-30T08:27:06;102143.44;;;1.54;100.00
71476;BME280;59286;59.274;17.974;2024-01-30T08:29:34;102145.06;;;1.62;100.00
71476;BME280;59286;59.274;17.974;2024-01-30T08:32:00;102143.84;;;1.64;100.00
71476;BME280;59286;59.274;17.974;2024-01-30T08:34:25;102152.19;;;1.66;100.00
71476;BME280;59286;59.274;17.974;2024-01-30T08:36:50;102150.41;;;1.67;100.00
71476;BME280;59286;59.274;17.974;2024-01-30T08:39:16;102151.00;;;1.69;100.00
71476;BME280;59286;59.274;17.974;2024-01-30T08:41:41;102136.69;;;1.66;100.00
71476;BME280;59286;59.274;17.974;2024-01-30T08:44:06;102144.84;;;1.63;100.00
71476;BME280;59286;59.274;17.974;2024-01-30T08:46:32;102148.63;;;1.67;100.00
71476;BME280;59286;59.274;17.974;2024-01-30T08:48:57;102151.03;;;1.82;100.00
71476;BME280;59286;59.274;17.974;2024-01-30T08:51:23;102157.38;;;1.92;100.00
71476;BME280;59286;59.274;17.974;2024-01-30T08:53:48;102158.59;;;1.96;100.00
71476;BME280;59286;59.274;17.974;2024-01-30T08:56:14;102156.81;;;1.97;100.00
71476;BME280;59286;59.274;17.974;2024-01-30T08:58:41;102150.81;;;1.96;100.00
71476;BME280;59286;59.274;17.974;2024-01-30T09:01:06;102154.78;;;1.92;100.00
71476;BME280;59286;59.274;17.974;2024-01-30T09:03:32;102168.53;;;1.93;100.00
71476;BME280;59286;59.274;17.974;2024-01-30T09:05:57;102151.00;;;1.88;100.00
71476;BME280;59286;59.274;17.974;2024-01-30T09:08:22;102158.59;;;1.96;100.00
71476;BME280;59286;59.274;17.974;2024-01-30T09:10:47;102149.44;;;2.01;100.00
71476;BME280;59286;59.274;17.974;2024-01-30T09:13:15;102151.63;;;2.10;100.00
71476;BME280;59286;59.274;17.974;2024-01-30T09:15:40;102141.88;;;2.12;100.00
71476;BME280;59286;59.274;17.974;2024-01-30T09:18:06;102139.09;;;2.14;100.00
71476;BME280;59286;59.274;17.974;2024-01-30T09:20:31;102153.81;;;2.20;100.00
71476;BME280;59286;59.274;17.974;2024-01-30T09:22:57;102144.25;;;2.27;100.00
71476;BME280;59286;59.274;17.974;2024-01-30T09:25:22;102133.91;;;2.27;100.00
71476;BME280;59286;59.274;17.974;2024-01-30T09:27:47;102136.88;;;2.37;100.00
71476;BME280;59286;59.274;17.974;2024-01-30T09:30:13;102135.06;;;2.44;100.00
71476;BME280;59286;59.274;17.974;2024-01-30T09:32:39;102131.47;;;2.45;100.00
71476;BME280;59286;59.274;17.974;2024-01-30T09:35:05;102127.66;;;2.54;100.00
71476;BME280;59286;59.274;17.974;2024-01-30T09:37:31;102128.63;;;2.59;100.00
71476;BME280;59286;59.274;17.974;2024-01-30T09:39:56;102119.25;;;2.65;100.00
71476;BME280;59286;59.274;17.974;2024-01-30T09:42:33;102117.91;;;2.56;100.00
71476;BME280;59286;59.274;17.974;2024-01-30T09:45:00;102119.50;;;2.57;100.00
71476;BME280;59286;59.274;17.974;2024-01-30T09:47:26;102124.47;;;2.58;100.00
71476;BME280;59286;59.274;17.974;2024-01-30T09:49:52;102117.47;;;2.65;100.00
71476;BME280;59286;59.274;17.974;2024-01-30T09:52:17;102121.19;;;2.82;100.00
71476;BME280;59286;59.274;17.974;2024-01-30T09:54:45;102105.06;;;2.87;100.00
71476;BME280;59286;59.274;17.974;2024-01-30T09:57:11;102117.75;;;2.95;100.00
71476;BME280;59286;59.274;17.974;2024-01-30T09:59:37;102112.94;;;3.05;100.00
71476;BME280;59286;59.274;17.974;2024-01-30T10:02:02;102104.94;;;3.13;100.00
71476;BME280;59286;59.274;17.974;2024-01-30T10:04:29;102116.44;;;3.17;100.00
71476;BME280;59286;59.274;17.974;2024-01-30T10:06:55;102120.63;;;3.18;100.00
71476;BME280;59286;59.274;17.974;2024-01-30T10:09:20;102114.88;;;3.16;100.00
71476;BME280;59286;59.274;17.974;2024-01-30T10:11:47;102120.63;;;3.18;100.00
71476;BME280;59286;59.274;17.974;2024-01-30T10:14:13;102112.88;;;3.18;100.00
71476;BME280;59286;59.274;17.974;2024-01-30T10:16:39;102111.25;;;3.24;100.00
71476;BME280;59286;59.274;17.974;2024-01-30T10:19:04;102121.19;;;3.27;100.00
71476;BME280;59286;59.274;17.974;2024-01-30T10:21:30;102112.81;;;3.25;100.00
71476;BME280;59286;59.274;17.974;2024-01-30T10:23:55;102107.44;;;3.26;100.00
71476;BME280;59286;59.274;17.974;2024-01-30T10:26:21;102100.28;;;3.22;100.00
71476;BME280;59286;59.274;17.974;2024-01-30T10:28:46;102090.22;;;3.07;100.00
71476;BME280;59286;59.274;17.974;2024-01-30T10:31:16;102095.56;;;3.12;100.00
71476;BME280;59286;59.274;17.974;2024-01-30T10:33:42;102089.41;;;3.13;100.00
71476;BME280;59286;59.274;17.974;2024-01-30T10:36:09;102076.22;;;3.15;100.00
71476;BME280;59286;59.274;17.974;2024-01-30T10:38:36;102073.41;;;3.16;100.00
71476;BME280;59286;59.274;17.974;2024-01-30T10:41:04;102095.69;;;3.24;100.00
71476;BME280;59286;59.274;17.974;2024-01-30T10:43:35;102091.47;;;3.29;100.00
71476;BME280;59286;59.274;17.974;2024-01-30T10:46:20;102092.06;;;3.31;100.00
71476;BME280;59286;59.274;17.974;2024-01-30T10:48:51;102087.25;;;3.35;100.00
71476;BME280;59286;59.274;17.974;2024-01-30T10:51:20;102076.44;;;3.44;100.00
71476;BME280;59286;59.274;17.974;2024-01-30T10:53:46;102078.00;;;3.45;100.00
71476;BME280;59286;59.274;17.974;2024-01-30T10:56:11;102075.03;;;3.42;100.00
71476;BME280;59286;59.274;17.974;2024-01-30T10:58:38;102075.22;;;3.47;100.00
71476;BME280;59286;59.274;17.974;2024-01-30T11:01:05;102061.25;;;3.48;100.00
71476;BME280;59286;59.274;17.974;2024-01-30T11:03:32;102063.03;;;3.47;100.00
71476;BME280;59286;59.274;17.974;2024-01-30T11:06:00;102057.25;;;3.45;100.00
71476;BME280;59286;59.274;17.974;2024-01-30T11:08:25;102055.69;;;3.44;100.00
71476;BME280;59286;59.274;17.974;2024-01-30T11:10:56;102046.06;;;3.51;100.00
71476;BME280;59286;59.274;17.974;2024-01-30T11:13:31;102043.81;;;3.61;100.00
71476;BME280;59286;59.274;17.974;2024-01-30T11:16:01;102030.84;;;3.61;100.00
71476;BME280;59286;59.274;17.974;2024-01-30T11:18:31;102035.59;;;3.64;100.00
71476;BME280;59286;59.274;17.974;2024-01-30T11:20:57;102024.84;;;3.61;100.00
71476;BME280;59286;59.274;17.974;2024-01-30T11:23:25;102035.59;;;3.64;100.00
71476;BME280;59286;59.274;17.974;2024-01-30T11:25:52;102031.56;;;3.68;100.00
71476;BME280;59286;59.274;17.974;2024-01-30T11:28:18;102031.56;;;3.68;100.00
71476;BME280;59286;59.274;17.974;2024-01-30T11:30:44;102025.56;;;3.68;100.00
71476;BME280;59286;59.274;17.974;2024-01-30T11:33:11;102022.19;;;3.67;100.00
71476;BME280;59286;59.274;17.974;2024-01-30T11:35:41;102023.53;;;3.76;100.00
71476;BME280;59286;59.274;17.974;2024-01-30T11:38:08;102008.72;;;3.77;100.00
71476;BME280;59286;59.274;17.974;2024-01-30T11:40:35;102008.72;;;3.77;100.00
71476;BME280;59286;59.274;17.974;2024-01-30T11:43:02;101998.81;;;3.74;100.00
71476;BME280;59286;59.274;17.974;2024-01-30T11:45:30;101996.47;;;3.66;100.00
71476;BME280;59286;59.274;17.974;2024-01-30T11:47:56;102004.75;;;3.56;100.00
71476;BME280;59286;59.274;17.974;2024-01-30T11:50:22;102006.34;;;3.57;100.00
71476;BME280;59286;59.274;17.974;2024-01-30T11:52:48;102000.56;;;3.55;100.00
71476;BME280;59286;59.274;17.974;2024-01-30T11:55:14;101997.13;;;3.61;100.00
71476;BME280;59286;59.274;17.974;2024-01-30T11:57:40;102006.63;;;3.67;100.00
71476;BME280;59286;59.274;17.974;2024-01-30T12:00:06;101999.25;;;3.71;100.00
71476;BME280;59286;59.274;17.974;2024-01-30T12:02:39;101988.88;;;3.71;100.00
71476;BME280;59286;59.274;17.974;2024-01-30T12:05:05;101993.25;;;3.70;100.00
71476;BME280;59286;59.274;17.974;2024-01-30T12:07:30;101988.06;;;3.70;100.00
71476;BME280;59286;59.274;17.974;2024-01-30T12:09:56;101985.63;;;3.75;100.00
71476;BME280;59286;59.274;17.974;2024-01-30T12:12:25;101983.16;;;3.80;100.00
71476;BME280;59286;59.274;17.974;2024-01-30T12:14:51;101981.59;;;3.79;100.00
71476;BME280;59286;59.274;17.974;2024-01-30T12:17:43;101967.47;;;3.75;100.00
71476;BME280;59286;59.274;17.974;2024-01-30T12:20:17;101980.56;;;3.80;100.00
71476;BME280;59286;59.274;17.974;2024-01-30T12:22:44;101982.75;;;3.83;100.00
71476;BME280;59286;59.274;17.974;2024-01-30T12:25:11;101971.72;;;3.88;100.00
71476;BME280;59286;59.274;17.974;2024-01-30T12:27:37;101981.47;;;3.92;100.00
71476;BME280;59286;59.274;17.974;2024-01-30T12:30:10;101991.25;;;3.90;100.00
71476;BME280;59286;59.274;17.974;2024-01-30T12:32:41;101983.41;;;3.97;100.00
71476;BME280;59286;59.274;17.974;2024-01-30T12:35:11;101967.69;;;3.92;100.00